»·PEaware :: N652MA KSBA-KPSP

N652MA :: KSBA-KPSP

FLIGHT INFORMATION

Flight Status: Arrived
Operator: Privately registered:
United States
More flights under this callsign
Pilot: Anonymous 13363 (13363)
Aircraft: GULFSTREAM G-1159C GULFSTREAM 4
(GLF4)
More flights by this aircraft type
Origin: KSBA Santa Barbara Mun
United States
Destination: KPSP Palm Springs Intl
United States
More flights between these airports :: More routes between these airports
Route: KWANG5 HENER PMD V137 WHETO
File this flight plan on PilotEdge
Remarks: Twitch.tv / ajonesieee
Altitude:
(Current/Filed)
23,000ft
Speed:
(Current/Filed)
490kts
Departed: 21-Sep-17 08:12 PM
Arrived: 21-Sep-17 08:49 PM
Distance/Time
Traveled:
170nm/0:36
Distance/Time
To Go:
Arrived

Flight Plot

Page will automatically refresh every two minutes.

Flight plan parsing failed; only flown route is shown


Map Options




Map Legend


Flown Route
Filed Route
Departure Airport
Arrival Airport
Navaid (VOR, NDB)
Fix

Horizontal Profiles

Position Reports

Time Latitude Longitude Heading Altitude Ground
Speed
21-Sep-17 20:00 34.432551 -119.835183 71 21ft 0kts
21-Sep-17 20:01 34.432551 -119.835183 71 21ft 0kts
21-Sep-17 20:02 34.432551 -119.835183 71 21ft 0kts
21-Sep-17 20:03 34.432551 -119.835183 71 21ft 0kts
21-Sep-17 20:04 34.432551 -119.835183 71 21ft 0kts
21-Sep-17 20:05 34.432551 -119.835183 71 21ft 0kts
21-Sep-17 20:06 34.432551 -119.835184 71 21ft 0kts
21-Sep-17 20:07 34.432551 -119.835184 71 21ft 0kts
21-Sep-17 20:08 34.432551 -119.835184 71 21ft 0kts
21-Sep-17 20:09 34.432551 -119.835184 71 21ft 0kts
21-Sep-17 20:10 34.432551 -119.835184 71 21ft 0kts
21-Sep-17 20:11 34.432551 -119.835183 71 21ft 0kts
21-Sep-17 20:12 34.432554 -119.835175 71 21ft 0kts
21-Sep-17 20:13 34.431347 -119.835361 177 21ft 10kts
21-Sep-17 20:14 34.429000 -119.834807 115 21ft 3kts
21-Sep-17 20:15 34.427903 -119.834900 265 21ft 0kts
21-Sep-17 20:16 34.425492 -119.876269 255 1894ft 222kts
21-Sep-17 20:17 34.379762 -119.902260 146 2824ft 226kts
21-Sep-17 20:18 34.374102 -119.819195 82 2998ft 266kts
21-Sep-17 20:19 34.384325 -119.717111 94 5223ft 278kts
21-Sep-17 20:20 34.353928 -119.631553 115 8212ft 290kts
21-Sep-17 20:21 34.317535 -119.534213 107 11359ft 367kts
21-Sep-17 20:22 34.317844 -119.403434 83 15025ft 413kts
21-Sep-17 20:23 34.327590 -119.274572 84 18266ft 429kts
21-Sep-17 20:24 34.352957 -119.144854 71 21362ft 473kts
21-Sep-17 20:25 34.393365 -118.990613 71 22949ft 495kts
21-Sep-17 20:26 34.434281 -118.833610 71 23054ft 503kts
21-Sep-17 20:27 34.471348 -118.690577 71 23071ft 503kts
21-Sep-17 20:28 34.482973 -118.531677 110 23062ft 492kts
21-Sep-17 20:29 34.443723 -118.379369 112 23023ft 491kts
21-Sep-17 20:30 34.415213 -118.271873 113 23008ft 490kts
21-Sep-17 20:31 34.374638 -118.120021 113 23009ft 489kts
21-Sep-17 20:32 34.334032 -117.967506 114 23003ft 485kts
21-Sep-17 20:33 34.291815 -117.813459 114 22987ft 488kts
21-Sep-17 20:34 34.252862 -117.671114 113 22182ft 468kts
21-Sep-17 20:35 34.212657 -117.526589 112 20498ft 452kts
21-Sep-17 20:36 34.173420 -117.386256 111 18838ft 437kts
21-Sep-17 20:37 34.136591 -117.254338 111 17183ft 423kts
21-Sep-17 20:38 34.099797 -117.122434 111 15483ft 412kts
21-Sep-17 20:39 34.065311 -116.998657 110 13724ft 374kts
21-Sep-17 20:40 34.033426 -116.885254 109 12191ft 336kts
21-Sep-17 20:41 34.004019 -116.779545 109 12159ft 337kts
21-Sep-17 20:42 33.976384 -116.676906 100 11614ft 340kts
21-Sep-17 20:43 33.959523 -116.567359 101 9619ft 329kts
21-Sep-17 20:44 33.941520 -116.462419 101 7661ft 310kts
21-Sep-17 20:45 33.925143 -116.368083 100 6997ft 278kts
21-Sep-17 20:46 33.881648 -116.304282 161 6501ft 273kts
21-Sep-17 20:47 33.816412 -116.276131 166 5502ft 242kts
21-Sep-17 20:48 33.757671 -116.286313 221 4881ft 213kts
21-Sep-17 20:49 33.735269 -116.346841 274 4163ft 202kts
21-Sep-17 20:50 33.750581 -116.411065 298 3412ft 204kts
21-Sep-17 20:51 33.780489 -116.462823 314 2085ft 159kts
21-Sep-17 20:52 33.812030 -116.491980 323 729ft 136kts
21-Sep-17 20:53 33.831391 -116.509188 325 485ft 22kts
21-Sep-17 20:54 33.834347 -116.510865 47 485ft 12kts
21-Sep-17 20:55 33.833607 -116.507288 144 485ft 18kts
21-Sep-17 20:56 33.828362 -116.502620 144 485ft 26kts
21-Sep-17 20:57 33.824075 -116.498623 145 485ft 4kts
21-Sep-17 20:58 33.823214 -116.497768 83 485ft 2kts
21-Sep-17 20:59 33.823315 -116.497562 51 485ft 0kts

Navigation Log

Ident Type
Flight plan parsing failed, navigation log unavailable